createdAt,value
2019-03-31T00:00:21.681Z,0.00
2019-03-31T00:01:21.679Z,0.00
2019-03-31T00:02:21.670Z,0.00
2019-03-31T00:03:21.738Z,0.00
2019-03-31T00:04:21.637Z,0.00
2019-03-31T00:05:21.634Z,0.00
2019-03-31T00:06:21.627Z,0.00
2019-03-31T00:07:21.605Z,0.00
2019-03-31T00:08:21.590Z,0.00
2019-03-31T00:09:21.585Z,0.00
2019-03-31T00:10:21.577Z,0.00
2019-03-31T00:11:21.561Z,0.00
2019-03-31T00:12:21.581Z,0.00
2019-03-31T00:13:21.546Z,0.00
2019-03-31T00:14:21.541Z,0.00
2019-03-31T00:15:21.518Z,0.00
2019-03-31T00:16:21.514Z,0.00
2019-03-31T00:17:21.494Z,0.00
2019-03-31T00:18:21.489Z,0.00
2019-03-31T00:19:21.471Z,0.00
2019-03-31T00:20:21.467Z,0.00
2019-03-31T00:21:21.453Z,0.00
2019-03-31T00:22:21.453Z,0.00
2019-03-31T00:23:21.425Z,0.00
2019-03-31T00:24:21.436Z,0.00
2019-03-31T00:25:21.407Z,0.00
2019-03-31T00:26:21.394Z,0.00
2019-03-31T00:27:21.413Z,0.00
2019-03-31T00:28:21.376Z,0.00
2019-03-31T00:29:21.359Z,0.00
2019-03-31T00:30:21.355Z,0.00
2019-03-31T00:31:22.563Z,0.00
2019-03-31T00:32:21.341Z,0.00
2019-03-31T00:33:21.332Z,0.00
2019-03-31T00:34:21.311Z,0.00
2019-03-31T00:35:21.296Z,0.00
2019-03-31T00:36:21.282Z,0.00
2019-03-31T00:37:21.272Z,0.00
2019-03-31T00:38:21.273Z,0.00
2019-03-31T00:39:21.256Z,0.00
2019-03-31T00:40:21.249Z,0.00
2019-03-31T00:41:21.228Z,0.00
2019-03-31T00:42:21.222Z,0.00
2019-03-31T00:43:21.207Z,0.00
2019-03-31T00:44:21.224Z,0.00
2019-03-31T00:45:21.200Z,0.00
2019-03-31T00:46:21.184Z,0.00
2019-03-31T00:47:21.172Z,0.00
2019-03-31T00:48:21.158Z,0.00
2019-03-31T00:49:21.152Z,0.00
2019-03-31T00:50:21.130Z,0.00
2019-03-31T00:51:21.120Z,0.00
2019-03-31T00:52:21.109Z,0.00
2019-03-31T00:53:21.103Z,0.00
2019-03-31T00:54:21.098Z,0.00
2019-03-31T00:55:21.075Z,0.00
2019-03-31T00:56:21.076Z,0.00
2019-03-31T00:57:21.063Z,0.00
2019-03-31T00:58:21.048Z,0.00
2019-03-31T00:59:21.052Z,0.00
2019-03-31T01:00:21.025Z,0.00
2019-03-31T01:01:21.015Z,0.00
2019-03-31T01:02:21.005Z,0.00
2019-03-31T01:03:20.993Z,0.00
2019-03-31T01:04:21.007Z,0.00
2019-03-31T01:05:21.214Z,0.00
2019-03-31T01:06:20.956Z,0.00
2019-03-31T01:07:20.954Z,0.00
2019-03-31T01:08:20.946Z,0.00
2019-03-31T01:09:20.930Z,0.00
2019-03-31T01:10:20.933Z,0.00
2019-03-31T01:11:20.904Z,0.00
2019-03-31T01:12:20.904Z,0.00
2019-03-31T01:13:20.883Z,0.00
2019-03-31T01:14:20.885Z,0.00
2019-03-31T01:15:20.860Z,0.00
2019-03-31T01:16:28.974Z,0.00
2019-03-31T01:17:20.837Z,0.00
2019-03-31T01:18:20.825Z,0.00
2019-03-31T01:19:20.826Z,0.00
2019-03-31T01:20:20.810Z,0.00
2019-03-31T01:21:20.793Z,0.00
2019-03-31T01:22:20.787Z,0.00
2019-03-31T01:23:20.777Z,0.00
2019-03-31T01:24:20.767Z,0.00
2019-03-31T01:25:20.753Z,0.00
2019-03-31T01:26:20.749Z,0.00
2019-03-31T01:27:20.725Z,0.00
2019-03-31T01:28:20.719Z,0.00
2019-03-31T01:29:20.705Z,0.00
2019-03-31T01:30:20.698Z,0.00
2019-03-31T01:31:20.689Z,0.00
2019-03-31T01:32:20.676Z,0.00
2019-03-31T01:33:20.664Z,0.00
2019-03-31T01:34:20.651Z,0.00
2019-03-31T01:35:20.638Z,0.00
2019-03-31T01:36:20.671Z,0.00
2019-03-31T01:37:20.622Z,0.00
2019-03-31T01:38:20.608Z,0.00
2019-03-31T01:39:20.603Z,0.00
2019-03-31T01:40:20.587Z,0.00
2019-03-31T01:41:20.581Z,0.00
2019-03-31T01:42:20.570Z,0.00
2019-03-31T01:43:20.564Z,0.00
2019-03-31T01:44:20.552Z,0.00
2019-03-31T01:45:20.535Z,0.00
2019-03-31T01:46:20.519Z,0.00
2019-03-31T01:47:20.547Z,0.00
2019-03-31T01:48:20.495Z,0.00
2019-03-31T01:49:20.490Z,0.00
2019-03-31T01:50:20.486Z,0.00
2019-03-31T01:51:20.469Z,0.00
2019-03-31T01:52:20.468Z,0.00
2019-03-31T01:53:20.451Z,0.00
2019-03-31T01:54:20.430Z,0.00
2019-03-31T01:55:20.421Z,0.00
2019-03-31T01:56:20.409Z,0.00
2019-03-31T01:57:20.410Z,0.00
2019-03-31T01:58:20.400Z,0.00
2019-03-31T01:59:20.384Z,0.00
2019-03-31T02:00:20.370Z,0.00
2019-03-31T02:01:20.353Z,0.00
2019-03-31T02:02:20.349Z,0.00
2019-03-31T02:03:20.347Z,0.00
2019-03-31T02:04:20.343Z,0.00
2019-03-31T02:05:20.314Z,0.00
2019-03-31T02:06:20.302Z,0.00
2019-03-31T02:07:20.295Z,0.00
2019-03-31T02:08:20.281Z,0.00
2019-03-31T02:09:20.283Z,0.00
2019-03-31T02:10:20.264Z,0.00
2019-03-31T02:11:20.249Z,0.00
2019-03-31T02:12:20.233Z,0.00
2019-03-31T02:13:20.224Z,0.00
2019-03-31T02:14:20.216Z,0.00
2019-03-31T02:15:20.225Z,0.00
2019-03-31T02:16:20.192Z,0.00
2019-03-31T02:17:20.182Z,0.00
2019-03-31T02:18:20.182Z,0.00
2019-03-31T02:19:20.169Z,0.00
2019-03-31T02:20:20.153Z,0.00
2019-03-31T02:21:20.144Z,0.00
2019-03-31T02:22:20.127Z,0.00
2019-03-31T02:23:20.115Z,0.00
2019-03-31T02:24:20.102Z,0.00
2019-03-31T02:25:20.091Z,0.00
2019-03-31T02:26:20.090Z,0.00
2019-03-31T02:27:20.076Z,0.00
2019-03-31T02:28:20.059Z,0.00
2019-03-31T02:29:20.047Z,0.00
2019-03-31T02:30:20.039Z,0.00
2019-03-31T02:31:20.035Z,0.00
2019-03-31T02:32:24.277Z,0.00
2019-03-31T02:33:20.007Z,0.00
2019-03-31T02:34:20.002Z,0.00
2019-03-31T02:35:19.990Z,0.00
2019-03-31T02:36:19.980Z,0.00
2019-03-31T02:37:19.964Z,0.00
2019-03-31T02:38:19.962Z,0.00
2019-03-31T02:39:19.938Z,0.00
2019-03-31T02:40:19.928Z,0.00
2019-03-31T02:41:19.922Z,0.00
2019-03-31T02:42:19.914Z,0.00
2019-03-31T02:43:19.900Z,0.00
2019-03-31T02:44:19.894Z,0.00
2019-03-31T02:45:19.873Z,0.00
2019-03-31T02:46:19.864Z,0.00
2019-03-31T02:47:19.890Z,0.00
2019-03-31T02:48:19.844Z,0.00
2019-03-31T02:49:19.831Z,0.00
2019-03-31T02:50:19.830Z,0.00
2019-03-31T02:51:19.967Z,0.00
2019-03-31T02:52:19.802Z,0.00
2019-03-31T02:53:19.819Z,0.00
2019-03-31T02:54:19.781Z,0.00
2019-03-31T02:55:19.767Z,0.00
2019-03-31T02:56:19.763Z,0.00
2019-03-31T02:57:19.742Z,0.00
2019-03-31T02:58:19.747Z,0.00
2019-03-31T02:59:19.736Z,0.00
2019-03-31T03:00:19.709Z,0.00
2019-03-31T03:01:19.702Z,0.00
2019-03-31T03:02:19.690Z,0.00
2019-03-31T03:03:19.680Z,0.00
2019-03-31T03:04:19.680Z,0.00
2019-03-31T03:05:20.350Z,0.00
2019-03-31T03:06:19.649Z,0.00
2019-03-31T03:07:19.640Z,0.00
2019-03-31T03:08:19.659Z,0.00
2019-03-31T03:09:19.613Z,0.00
2019-03-31T03:10:19.614Z,0.00
2019-03-31T03:11:19.596Z,0.00
2019-03-31T03:12:19.585Z,0.00
2019-03-31T03:13:19.567Z,0.00
2019-03-31T03:14:19.570Z,0.00
2019-03-31T03:15:19.552Z,0.00
2019-03-31T03:16:19.536Z,0.00
2019-03-31T03:17:19.528Z,0.00
2019-03-31T03:18:19.519Z,0.00
2019-03-31T03:19:19.527Z,0.00
2019-03-31T03:20:19.497Z,0.00
2019-03-31T03:21:23.643Z,0.00
2019-03-31T03:22:20.537Z,0.00
2019-03-31T03:23:19.470Z,0.00
2019-03-31T03:24:19.448Z,0.00
2019-03-31T03:25:19.449Z,0.00
2019-03-31T03:26:19.446Z,0.00
2019-03-31T03:27:19.416Z,0.00
2019-03-31T03:28:19.403Z,0.00
2019-03-31T03:29:19.401Z,0.00
2019-03-31T03:30:19.425Z,0.00
2019-03-31T03:31:19.417Z,0.00
2019-03-31T03:32:19.373Z,0.00
2019-03-31T03:33:19.471Z,0.00
2019-03-31T03:34:19.338Z,0.00
2019-03-31T03:35:19.345Z,0.00
2019-03-31T03:36:19.326Z,0.00
2019-03-31T03:37:19.330Z,0.00
2019-03-31T03:38:19.292Z,0.00
2019-03-31T03:39:19.288Z,0.00
2019-03-31T03:40:19.273Z,0.00
2019-03-31T03:41:19.273Z,0.00
2019-03-31T03:42:19.249Z,0.00
2019-03-31T03:43:19.240Z,0.00
2019-03-31T03:44:19.225Z,0.00
2019-03-31T03:45:19.220Z,0.00
2019-03-31T03:46:19.221Z,0.00
2019-03-31T03:47:19.196Z,0.00
2019-03-31T03:48:19.187Z,0.00
2019-03-31T03:49:19.409Z,0.00
2019-03-31T03:50:19.171Z,0.00
2019-03-31T03:51:19.153Z,0.00
2019-03-31T03:52:19.166Z,0.00
2019-03-31T03:53:19.133Z,0.00
2019-03-31T03:54:19.123Z,0.00
2019-03-31T03:55:19.106Z,0.00
2019-03-31T03:56:19.094Z,0.00
2019-03-31T03:57:19.095Z,0.00
2019-03-31T03:58:19.080Z,0.00
2019-03-31T03:59:19.056Z,0.00
2019-03-31T04:00:19.067Z,0.00
2019-03-31T04:01:19.038Z,0.00
2019-03-31T04:02:19.027Z,0.00
2019-03-31T04:03:30.009Z,0.00
2019-03-31T04:04:20.020Z,0.00
2019-03-31T04:05:18.998Z,0.00
2019-03-31T04:06:18.979Z,0.00
2019-03-31T04:07:18.975Z,0.00
2019-03-31T04:08:18.967Z,0.00
2019-03-31T04:09:18.959Z,0.00
2019-03-31T04:10:18.951Z,0.00
2019-03-31T04:11:21.605Z,0.00
2019-03-31T04:12:18.920Z,0.00
2019-03-31T04:13:18.906Z,0.00
2019-03-31T04:14:18.901Z,0.00
2019-03-31T04:15:18.876Z,0.00
2019-03-31T04:16:18.869Z,0.00
2019-03-31T04:17:18.857Z,0.00
2019-03-31T04:18:18.872Z,0.00
2019-03-31T04:19:18.840Z,0.00
2019-03-31T04:20:18.829Z,0.00
2019-03-31T04:21:18.814Z,0.00
2019-03-31T04:22:18.815Z,0.00
2019-03-31T04:23:18.798Z,0.00
2019-03-31T04:24:18.816Z,0.00
2019-03-31T04:25:18.778Z,0.00
2019-03-31T04:26:18.767Z,0.00
2019-03-31T04:27:19.325Z,0.00
2019-03-31T04:28:18.735Z,0.00
2019-03-31T04:29:18.733Z,0.00
2019-03-31T04:30:18.760Z,5.62
2019-03-31T04:31:18.724Z,5.62
2019-03-31T04:32:18.699Z,5.62
2019-03-31T04:33:18.696Z,5.62
2019-03-31T04:34:18.678Z,5.62
2019-03-31T04:35:18.669Z,11.25
2019-03-31T04:36:18.687Z,11.25
2019-03-31T04:37:18.639Z,11.25
2019-03-31T04:38:18.627Z,11.25
2019-03-31T04:39:18.618Z,16.88
2019-03-31T04:40:18.619Z,16.88
2019-03-31T04:41:18.620Z,16.88
2019-03-31T04:42:18.583Z,22.50
2019-03-31T04:43:18.575Z,22.50
2019-03-31T04:44:18.564Z,22.50
2019-03-31T04:45:18.557Z,28.12
2019-03-31T04:46:18.541Z,28.12
2019-03-31T04:47:18.545Z,33.75
2019-03-31T04:48:18.516Z,33.75
2019-03-31T04:49:18.510Z,39.38
2019-03-31T04:50:18.498Z,39.38
2019-03-31T04:51:18.494Z,45.00
2019-03-31T04:52:18.482Z,45.00
2019-03-31T04:53:18.465Z,50.62
2019-03-31T04:54:18.454Z,56.25
2019-03-31T04:55:18.443Z,56.25
2019-03-31T04:56:18.434Z,61.88
2019-03-31T04:57:18.420Z,67.50
2019-03-31T04:58:18.412Z,73.12
2019-03-31T04:59:18.402Z,73.12
2019-03-31T05:00:18.388Z,78.75
2019-03-31T05:01:18.374Z,84.38
2019-03-31T05:02:18.401Z,84.38
2019-03-31T05:03:18.350Z,90.00
2019-03-31T05:04:18.339Z,95.62
2019-03-31T05:05:18.330Z,101.25
2019-03-31T05:06:18.321Z,106.88
2019-03-31T05:07:18.306Z,112.50
2019-03-31T05:08:18.305Z,118.12
2019-03-31T05:09:18.285Z,123.75
2019-03-31T05:10:18.269Z,129.38
2019-03-31T05:11:18.259Z,135.00
2019-03-31T05:12:18.252Z,140.62
2019-03-31T05:13:18.245Z,146.25
2019-03-31T05:14:18.225Z,157.50
2019-03-31T05:15:18.214Z,157.50
2019-03-31T05:16:18.207Z,163.12
2019-03-31T05:17:18.195Z,168.75
2019-03-31T05:18:18.225Z,174.38
2019-03-31T05:19:18.176Z,180.00
2019-03-31T05:20:18.162Z,185.62
2019-03-31T05:21:18.154Z,196.88
2019-03-31T05:22:18.135Z,202.50
2019-03-31T05:23:18.123Z,208.12
2019-03-31T05:24:18.122Z,219.38
2019-03-31T05:25:18.102Z,225.00
2019-03-31T05:26:18.092Z,230.62
2019-03-31T05:27:18.086Z,241.88
2019-03-31T05:28:18.083Z,253.12
2019-03-31T05:29:18.068Z,258.75
2019-03-31T05:30:18.071Z,264.38
2019-03-31T05:31:18.036Z,275.62
2019-03-31T05:32:18.033Z,286.88
2019-03-31T05:33:18.019Z,292.50
2019-03-31T05:34:19.374Z,303.75
2019-03-31T05:35:17.992Z,303.75
2019-03-31T05:36:17.995Z,315.00
2019-03-31T05:37:17.975Z,331.88
2019-03-31T05:38:17.961Z,331.88
2019-03-31T05:39:17.969Z,343.12
2019-03-31T05:40:17.938Z,360.00
2019-03-31T05:41:17.932Z,365.62
2019-03-31T05:42:17.916Z,382.50
2019-03-31T05:43:17.913Z,388.12
2019-03-31T05:44:17.896Z,405.00
2019-03-31T05:45:17.900Z,416.25
2019-03-31T05:46:17.877Z,433.12
2019-03-31T05:47:17.949Z,444.38
2019-03-31T05:48:17.873Z,455.62
2019-03-31T05:49:17.843Z,472.50
2019-03-31T05:50:17.830Z,489.38
2019-03-31T05:51:17.886Z,506.25
2019-03-31T05:52:17.806Z,506.25
2019-03-31T05:53:17.795Z,517.50
2019-03-31T05:54:17.802Z,534.38
2019-03-31T05:55:18.967Z,540.00
2019-03-31T05:56:17.768Z,545.62
2019-03-31T05:57:17.756Z,540.00
2019-03-31T05:58:17.764Z,540.00
2019-03-31T05:59:17.728Z,562.50
2019-03-31T06:00:17.722Z,579.38
2019-03-31T06:01:17.716Z,607.50
2019-03-31T06:02:17.710Z,630.00
2019-03-31T06:03:17.685Z,641.25
2019-03-31T06:04:17.693Z,618.75
2019-03-31T06:05:17.692Z,613.12
2019-03-31T06:06:17.657Z,618.75
2019-03-31T06:07:17.650Z,635.62
2019-03-31T06:08:17.643Z,624.38
2019-03-31T06:09:17.619Z,613.12
2019-03-31T06:10:17.622Z,613.12
2019-03-31T06:11:17.603Z,596.25
2019-03-31T06:12:17.587Z,489.38
2019-03-31T06:13:17.575Z,472.50
2019-03-31T06:14:17.564Z,511.88
2019-03-31T06:15:17.591Z,444.38
2019-03-31T06:16:17.545Z,433.12
2019-03-31T06:17:17.531Z,416.25
2019-03-31T06:18:17.525Z,421.88
2019-03-31T06:19:17.519Z,410.62
2019-03-31T06:20:17.507Z,382.50
2019-03-31T06:21:17.487Z,410.62
2019-03-31T06:22:17.476Z,399.38
2019-03-31T06:23:17.471Z,416.25
2019-03-31T06:24:17.458Z,393.75
2019-03-31T06:25:17.509Z,433.12
2019-03-31T06:26:17.439Z,461.25
2019-03-31T06:27:17.422Z,444.38
2019-03-31T06:28:17.418Z,450.00
2019-03-31T06:29:17.408Z,517.50
2019-03-31T06:30:17.395Z,596.25
2019-03-31T06:31:17.393Z,585.00
2019-03-31T06:32:17.366Z,562.50
2019-03-31T06:33:17.364Z,551.25
2019-03-31T06:34:17.349Z,630.00
2019-03-31T06:35:17.339Z,652.50
2019-03-31T06:36:17.356Z,776.25
2019-03-31T06:37:17.337Z,1040.62
2019-03-31T06:38:17.304Z,753.75
2019-03-31T06:39:17.292Z,961.88
2019-03-31T06:40:17.283Z,1006.88
2019-03-31T06:41:17.267Z,810.00
2019-03-31T06:42:17.266Z,883.12
2019-03-31T06:43:17.255Z,1417.50
2019-03-31T06:44:17.241Z,1468.12
2019-03-31T06:45:17.236Z,1440.00
2019-03-31T06:46:17.218Z,1378.12
2019-03-31T06:47:17.375Z,1293.75
2019-03-31T06:48:17.191Z,1299.38
2019-03-31T06:49:17.189Z,1248.75
2019-03-31T06:50:17.170Z,1282.50
2019-03-31T06:51:17.337Z,1271.25
2019-03-31T06:52:17.156Z,1321.88
2019-03-31T06:53:17.146Z,1378.12
2019-03-31T06:54:17.125Z,1366.88
2019-03-31T06:55:17.119Z,1310.62
2019-03-31T06:56:17.109Z,1423.12
2019-03-31T06:57:17.096Z,1473.75
2019-03-31T06:58:17.097Z,1552.50
2019-03-31T06:59:17.085Z,1541.25
2019-03-31T07:00:17.066Z,1518.75
2019-03-31T07:01:17.049Z,1636.88
2019-03-31T07:02:17.045Z,1715.62
2019-03-31T07:03:17.030Z,1670.62
2019-03-31T07:04:17.018Z,1715.62
2019-03-31T07:05:17.014Z,1704.38
2019-03-31T07:06:17.001Z,1743.75
2019-03-31T07:07:16.985Z,1771.88
2019-03-31T07:08:16.978Z,1777.50
2019-03-31T07:09:16.976Z,1738.12
2019-03-31T07:10:16.958Z,1822.50
2019-03-31T07:11:16.939Z,1856.25
2019-03-31T07:12:16.930Z,1828.12
2019-03-31T07:13:16.921Z,1845.00
2019-03-31T07:14:16.906Z,1878.75
2019-03-31T07:15:16.932Z,1940.62
2019-03-31T07:16:16.884Z,1957.50
2019-03-31T07:17:25.054Z,1929.38
2019-03-31T07:18:16.869Z,2053.12
2019-03-31T07:19:16.855Z,1946.25
2019-03-31T07:20:16.845Z,1890.00
2019-03-31T07:21:16.848Z,2081.25
2019-03-31T07:22:16.822Z,1175.62
2019-03-31T07:23:16.805Z,1935.00
2019-03-31T07:24:16.800Z,2098.12
2019-03-31T07:25:16.791Z,1777.50
2019-03-31T07:26:16.790Z,2176.88
2019-03-31T07:27:16.770Z,2137.50
2019-03-31T07:28:16.758Z,2165.62
2019-03-31T07:29:16.747Z,1119.38
2019-03-31T07:30:16.737Z,2272.50
2019-03-31T07:31:16.763Z,2165.62
2019-03-31T07:32:16.715Z,2520.00
2019-03-31T07:33:16.698Z,1766.25
2019-03-31T07:34:16.713Z,1310.62
2019-03-31T07:35:18.638Z,1215.00
2019-03-31T07:36:16.666Z,1147.50
2019-03-31T07:37:16.672Z,2221.88
2019-03-31T07:38:16.642Z,1164.38
2019-03-31T07:39:16.678Z,1361.25
2019-03-31T07:40:16.627Z,1333.12
2019-03-31T07:41:16.775Z,2160.00
2019-03-31T07:42:16.628Z,2171.25
2019-03-31T07:43:16.707Z,1125.00
2019-03-31T07:44:16.583Z,933.75
2019-03-31T07:45:16.569Z,916.88
2019-03-31T07:46:16.572Z,945.00
2019-03-31T07:47:16.581Z,1012.50
2019-03-31T07:48:16.542Z,1046.25
2019-03-31T07:49:16.525Z,1080.00
2019-03-31T07:50:16.515Z,1220.62
2019-03-31T07:51:16.508Z,1209.38
2019-03-31T07:52:16.493Z,1338.75
2019-03-31T07:53:16.499Z,1653.75
2019-03-31T07:54:16.479Z,1575.00
2019-03-31T07:55:16.463Z,1378.12
2019-03-31T07:56:16.454Z,1147.50
2019-03-31T07:57:16.440Z,2514.38
2019-03-31T07:58:16.449Z,1158.75
2019-03-31T07:59:16.502Z,1040.62
2019-03-31T08:00:16.407Z,1063.12
2019-03-31T08:01:16.432Z,1035.00
2019-03-31T08:02:16.379Z,967.50
2019-03-31T08:03:16.369Z,1147.50
2019-03-31T08:04:16.366Z,1541.25
2019-03-31T08:05:16.360Z,1046.25
2019-03-31T08:06:16.335Z,939.38
2019-03-31T08:07:16.332Z,815.62
2019-03-31T08:08:16.318Z,720.00
2019-03-31T08:09:16.307Z,680.62
2019-03-31T08:10:16.296Z,669.38
2019-03-31T08:11:17.241Z,691.88
2019-03-31T08:12:16.273Z,708.75
2019-03-31T08:13:16.257Z,720.00
2019-03-31T08:14:16.283Z,748.12
2019-03-31T08:15:16.254Z,753.75
2019-03-31T08:16:16.231Z,798.75
2019-03-31T08:17:16.220Z,911.25
2019-03-31T08:18:16.206Z,1046.25
2019-03-31T08:19:16.198Z,1057.50
2019-03-31T08:20:16.209Z,1040.62
2019-03-31T08:21:16.173Z,911.25
2019-03-31T08:22:16.166Z,855.00
2019-03-31T08:23:16.146Z,793.12
2019-03-31T08:24:16.145Z,798.75
2019-03-31T08:25:16.125Z,871.88
2019-03-31T08:26:16.134Z,1023.75
2019-03-31T08:27:16.109Z,1035.00
2019-03-31T08:28:16.095Z,984.38
2019-03-31T08:29:16.079Z,956.25
2019-03-31T08:30:16.079Z,911.25
2019-03-31T08:31:16.072Z,821.25
2019-03-31T08:32:16.047Z,765.00
2019-03-31T08:33:16.041Z,736.88
2019-03-31T08:34:16.031Z,759.38
2019-03-31T08:35:16.030Z,804.38
2019-03-31T08:36:16.020Z,759.38
2019-03-31T08:37:16.005Z,703.12
2019-03-31T08:38:15.987Z,663.75
2019-03-31T08:39:15.973Z,658.12
2019-03-31T08:40:15.963Z,675.00
2019-03-31T08:41:15.966Z,686.25
2019-03-31T08:42:15.954Z,731.25
2019-03-31T08:43:15.925Z,753.75
2019-03-31T08:44:15.924Z,708.75
2019-03-31T08:45:15.910Z,714.38
2019-03-31T08:46:15.913Z,753.75
2019-03-31T08:47:15.883Z,748.12
2019-03-31T08:48:15.882Z,742.50
2019-03-31T08:49:15.862Z,753.75
2019-03-31T08:50:15.855Z,838.12
2019-03-31T08:51:15.843Z,900.00
2019-03-31T08:52:15.835Z,950.62
2019-03-31T08:53:15.817Z,911.25
2019-03-31T08:54:15.804Z,1012.50
2019-03-31T08:55:15.799Z,1113.75
2019-03-31T08:56:15.783Z,1305.00
2019-03-31T08:57:15.823Z,3183.75
2019-03-31T08:58:15.761Z,2086.88
2019-03-31T08:59:15.759Z,3926.25
2019-03-31T09:00:15.744Z,3886.88
2019-03-31T09:01:15.727Z,3656.25
2019-03-31T09:02:15.716Z,1771.88
2019-03-31T09:03:15.743Z,1158.75
2019-03-31T09:04:15.693Z,984.38
2019-03-31T09:05:15.684Z,928.12
2019-03-31T09:06:15.674Z,894.38
2019-03-31T09:07:15.663Z,770.62
2019-03-31T09:08:15.659Z,675.00
2019-03-31T09:09:15.681Z,613.12
2019-03-31T09:10:15.626Z,568.12
2019-03-31T09:11:15.619Z,517.50
2019-03-31T09:12:15.610Z,500.62
2019-03-31T09:13:15.605Z,511.88
2019-03-31T09:14:15.595Z,545.62
2019-03-31T09:15:15.582Z,562.50
2019-03-31T09:16:15.566Z,613.12
2019-03-31T09:17:15.555Z,646.88
2019-03-31T09:18:15.542Z,658.12
2019-03-31T09:19:15.542Z,658.12
2019-03-31T09:20:15.547Z,663.75
2019-03-31T09:21:15.515Z,703.12
2019-03-31T09:22:15.499Z,759.38
2019-03-31T09:23:15.494Z,798.75
2019-03-31T09:24:15.484Z,883.12
2019-03-31T09:25:15.473Z,978.75
2019-03-31T09:26:15.457Z,1074.38
2019-03-31T09:27:15.449Z,1096.88
2019-03-31T09:28:15.435Z,1018.12
2019-03-31T09:29:15.420Z,945.00
2019-03-31T09:30:15.422Z,900.00
2019-03-31T09:31:15.401Z,855.00
2019-03-31T09:32:15.403Z,770.62
2019-03-31T09:33:15.376Z,714.38
2019-03-31T09:34:15.375Z,658.12
2019-03-31T09:35:15.387Z,624.38
2019-03-31T09:36:16.830Z,573.75
2019-03-31T09:37:15.331Z,545.62
2019-03-31T09:38:15.325Z,551.25
2019-03-31T09:39:15.308Z,517.50
2019-03-31T09:40:15.309Z,483.75
2019-03-31T09:41:15.308Z,444.38
2019-03-31T09:42:15.286Z,427.50
2019-03-31T09:43:15.269Z,421.88
2019-03-31T09:44:15.257Z,421.88
2019-03-31T09:45:15.257Z,455.62
2019-03-31T09:46:15.236Z,450.00
2019-03-31T09:47:15.228Z,427.50
2019-03-31T09:48:15.215Z,393.75
2019-03-31T09:49:15.206Z,371.25
2019-03-31T09:50:17.301Z,360.00
2019-03-31T09:51:15.198Z,360.00
2019-03-31T09:52:15.176Z,360.00
2019-03-31T09:53:15.162Z,360.00
2019-03-31T09:54:15.154Z,337.50
2019-03-31T09:55:15.138Z,315.00
2019-03-31T09:56:15.454Z,286.88
2019-03-31T09:57:15.123Z,270.00
2019-03-31T09:58:15.105Z,270.00
2019-03-31T09:59:15.090Z,258.75
2019-03-31T10:00:15.089Z,247.50
2019-03-31T10:01:15.067Z,247.50
2019-03-31T10:02:15.115Z,247.50
2019-03-31T10:03:15.053Z,241.88
2019-03-31T10:04:15.047Z,236.25
2019-03-31T10:05:15.029Z,241.88
2019-03-31T10:06:29.246Z,241.88
2019-03-31T10:07:16.014Z,253.12
2019-03-31T10:08:15.000Z,270.00
2019-03-31T10:09:14.991Z,281.25
2019-03-31T10:10:14.971Z,286.88
2019-03-31T10:11:14.963Z,298.12
2019-03-31T10:12:14.952Z,309.38
2019-03-31T10:13:14.966Z,315.00
2019-03-31T10:14:14.928Z,343.12
2019-03-31T10:15:14.920Z,365.62
2019-03-31T10:16:14.910Z,376.88
2019-03-31T10:17:14.899Z,388.12
2019-03-31T10:18:17.928Z,421.88
2019-03-31T10:19:14.880Z,450.00
2019-03-31T10:20:14.859Z,483.75
2019-03-31T10:21:14.890Z,506.25
2019-03-31T10:22:14.843Z,545.62
2019-03-31T10:23:14.833Z,585.00
2019-03-31T10:24:14.845Z,624.38
2019-03-31T10:25:14.819Z,669.38
2019-03-31T10:26:17.628Z,714.38
2019-03-31T10:27:15.788Z,742.50
2019-03-31T10:28:14.777Z,776.25
2019-03-31T10:29:14.767Z,810.00
2019-03-31T10:30:14.772Z,838.12
2019-03-31T10:31:14.740Z,871.88
2019-03-31T10:32:14.734Z,928.12
2019-03-31T10:33:14.721Z,978.75
2019-03-31T10:34:14.729Z,1029.38
2019-03-31T10:35:14.695Z,1096.88
2019-03-31T10:36:14.689Z,1175.62
2019-03-31T10:37:14.710Z,1248.75
2019-03-31T10:38:14.668Z,1288.12
2019-03-31T10:39:14.670Z,1378.12
2019-03-31T10:40:14.639Z,1485.00
2019-03-31T10:41:14.635Z,1665.00
2019-03-31T10:42:14.616Z,1738.12
2019-03-31T10:43:14.618Z,1760.62
2019-03-31T10:44:14.621Z,1648.12
2019-03-31T10:45:14.586Z,1614.38
2019-03-31T10:46:14.577Z,1636.88
2019-03-31T10:47:14.564Z,1563.75
2019-03-31T10:48:20.995Z,1563.75
2019-03-31T10:49:15.558Z,1563.75
2019-03-31T10:50:14.533Z,1569.38
2019-03-31T10:51:14.521Z,1591.88
2019-03-31T10:52:14.512Z,1563.75
2019-03-31T10:53:14.504Z,1552.50
2019-03-31T10:54:14.486Z,1603.12
2019-03-31T10:55:14.478Z,3296.25
2019-03-31T10:56:14.474Z,1816.88
2019-03-31T10:57:14.469Z,3639.38
2019-03-31T10:58:14.450Z,4725.00
2019-03-31T10:59:14.445Z,2857.50
2019-03-31T11:00:14.428Z,1456.88
2019-03-31T11:01:14.451Z,1445.62
2019-03-31T11:02:14.402Z,1361.25
2019-03-31T11:03:14.389Z,1282.50
2019-03-31T11:04:14.395Z,1271.25
2019-03-31T11:05:14.373Z,1248.75
2019-03-31T11:06:14.360Z,1215.00
2019-03-31T11:07:14.355Z,1136.25
2019-03-31T11:08:14.330Z,1091.25
2019-03-31T11:09:14.329Z,1057.50
2019-03-31T11:10:14.327Z,1046.25
2019-03-31T11:11:14.323Z,1063.12
2019-03-31T11:12:14.301Z,1068.75
2019-03-31T11:13:14.275Z,1080.00
2019-03-31T11:14:14.264Z,1102.50
2019-03-31T11:15:14.254Z,1164.38
2019-03-31T11:16:14.251Z,1192.50
2019-03-31T11:17:14.241Z,1260.00
2019-03-31T11:18:14.229Z,1215.00
2019-03-31T11:19:14.216Z,1226.25
2019-03-31T11:20:14.221Z,1935.00
2019-03-31T11:21:14.189Z,4066.88
2019-03-31T11:22:14.270Z,4123.12
2019-03-31T11:23:14.173Z,4168.12
2019-03-31T11:24:14.174Z,4201.88
2019-03-31T11:25:20.646Z,4168.12
2019-03-31T11:26:15.134Z,4111.88
2019-03-31T11:27:14.130Z,4477.50
2019-03-31T11:28:14.113Z,4528.12
2019-03-31T11:29:14.137Z,4488.75
2019-03-31T11:30:14.094Z,4606.88
2019-03-31T11:31:14.077Z,4657.50
2019-03-31T11:32:14.067Z,1299.38
2019-03-31T11:33:14.068Z,1310.62
2019-03-31T11:34:14.049Z,1378.12
2019-03-31T11:35:14.045Z,1411.88
2019-03-31T11:36:14.024Z,1361.25
2019-03-31T11:37:14.205Z,1288.12
2019-03-31T11:38:14.010Z,1136.25
2019-03-31T11:39:16.328Z,1057.50
2019-03-31T11:40:13.990Z,1018.12
2019-03-31T11:41:13.995Z,1023.75
2019-03-31T11:42:14.002Z,1018.12
2019-03-31T11:43:13.951Z,984.38
2019-03-31T11:44:13.938Z,984.38
2019-03-31T11:45:13.922Z,995.62
2019-03-31T11:46:13.911Z,1040.62
2019-03-31T11:47:13.910Z,1080.00
2019-03-31T11:48:13.903Z,1119.38
2019-03-31T11:49:13.936Z,1299.38
2019-03-31T11:50:13.866Z,1226.25
2019-03-31T11:51:13.862Z,2925.00
2019-03-31T11:52:13.864Z,4201.88
2019-03-31T11:53:13.839Z,4241.25
2019-03-31T11:54:13.829Z,4410.00
2019-03-31T11:55:13.825Z,4111.88
2019-03-31T11:56:13.808Z,4123.12
2019-03-31T11:57:17.284Z,4100.62
2019-03-31T11:58:13.783Z,4027.50
2019-03-31T11:59:13.788Z,4111.88
2019-03-31T12:00:13.764Z,4213.12
2019-03-31T12:01:13.751Z,4376.25
2019-03-31T12:02:26.391Z,4055.62
2019-03-31T12:03:14.726Z,4460.62
2019-03-31T12:04:13.727Z,4595.62
2019-03-31T12:05:13.716Z,4685.62
2019-03-31T12:06:13.708Z,4691.25
2019-03-31T12:07:26.955Z,4595.62
2019-03-31T12:08:14.669Z,4545.00
2019-03-31T12:09:13.682Z,3780.00
2019-03-31T12:10:13.666Z,4432.50
2019-03-31T12:11:13.726Z,4320.00
2019-03-31T12:12:13.629Z,4246.88
2019-03-31T12:13:13.619Z,4370.62
2019-03-31T12:14:13.613Z,4460.62
2019-03-31T12:15:13.605Z,4522.50
2019-03-31T12:16:13.595Z,4595.62
2019-03-31T12:17:13.575Z,4696.88
2019-03-31T12:18:13.562Z,4657.50
2019-03-31T12:19:13.546Z,4528.12
2019-03-31T12:20:13.552Z,4443.75
2019-03-31T12:21:13.545Z,4494.38
2019-03-31T12:22:13.535Z,4410.00
2019-03-31T12:23:13.509Z,2733.75
2019-03-31T12:24:13.498Z,1833.75
2019-03-31T12:25:13.489Z,1620.00
2019-03-31T12:26:13.494Z,4308.75
2019-03-31T12:27:13.476Z,2970.00
2019-03-31T12:28:13.452Z,1816.88
2019-03-31T12:29:13.438Z,3549.38
2019-03-31T12:30:13.427Z,3600.00
2019-03-31T12:31:13.421Z,2238.75
2019-03-31T12:32:13.419Z,1670.62
2019-03-31T12:33:13.401Z,3909.38
2019-03-31T12:34:13.383Z,4314.38
2019-03-31T12:35:13.372Z,4303.12
2019-03-31T12:36:13.362Z,4275.00
2019-03-31T12:37:13.392Z,4353.75
2019-03-31T12:38:13.401Z,4342.50
2019-03-31T12:39:13.349Z,4410.00